createdAt,value
2019-04-28T00:01:45.479Z,95.10
2019-04-28T00:04:15.077Z,95.30
2019-04-28T00:06:44.763Z,95.50
2019-04-28T00:09:15.956Z,95.50
2019-04-28T00:11:45.643Z,95.60
2019-04-28T00:14:15.372Z,95.50
2019-04-28T00:16:44.941Z,95.40
2019-04-28T00:19:14.603Z,95.20
2019-04-28T00:21:45.888Z,95.30
2019-04-28T00:24:17.110Z,95.40
2019-04-28T00:26:49.600Z,95.20
2019-04-28T00:29:22.274Z,93.50
2019-04-28T00:31:51.946Z,93.70
2019-04-28T00:34:21.523Z,94.00
2019-04-28T00:36:52.902Z,94.60
2019-04-28T00:39:22.692Z,95.00
2019-04-28T00:41:52.369Z,95.40
2019-04-28T00:44:23.100Z,95.70
2019-04-28T00:46:52.727Z,96.10
2019-04-28T00:49:24.027Z,96.20
2019-04-28T00:51:53.666Z,96.60
2019-04-28T00:54:23.322Z,97.00
2019-04-28T00:56:52.909Z,97.20
2019-04-28T00:59:22.562Z,97.40
2019-04-28T01:01:53.749Z,97.60
2019-04-28T01:04:23.496Z,97.90
2019-04-28T01:06:53.265Z,98.00
2019-04-28T01:09:23.052Z,98.10
2019-04-28T01:11:53.486Z,98.40
2019-04-28T01:14:23.416Z,98.50
2019-04-28T01:16:54.678Z,98.60
2019-04-28T01:19:25.895Z,98.70
2019-04-28T01:21:57.127Z,98.80
2019-04-28T01:24:26.772Z,98.80
2019-04-28T01:26:56.876Z,98.80
2019-04-28T01:29:29.765Z,98.90
2019-04-28T01:32:01.005Z,98.90
2019-04-28T01:34:30.642Z,99.20
2019-04-28T01:37:00.360Z,98.90
2019-04-28T01:39:30.032Z,98.90
2019-04-28T01:41:59.713Z,98.90
2019-04-28T01:44:29.819Z,99.00
2019-04-28T01:47:01.146Z,99.10
2019-04-28T01:49:30.724Z,99.10
2019-04-28T01:52:01.255Z,99.20
2019-04-28T01:54:31.142Z,99.30
2019-04-28T01:57:01.654Z,99.30
2019-04-28T01:59:31.392Z,99.40
2019-04-28T02:02:01.084Z,99.50
2019-04-28T02:04:32.586Z,99.50
2019-04-28T02:07:01.968Z,99.50
2019-04-28T02:09:31.587Z,99.60
2019-04-28T02:12:01.268Z,99.80
2019-04-28T02:14:32.225Z,99.80
2019-04-28T02:17:01.870Z,99.80
2019-04-28T02:19:33.060Z,99.80
2019-04-28T02:22:05.563Z,99.80
2019-04-28T02:24:36.695Z,99.90
2019-04-28T02:27:06.754Z,99.80
2019-04-28T02:29:36.372Z,99.70
2019-04-28T02:32:10.299Z,99.70
2019-04-28T02:34:41.158Z,99.70
2019-04-28T02:37:11.225Z,99.80
2019-04-28T02:39:41.451Z,99.70
2019-04-28T02:42:11.405Z,99.60
2019-04-28T02:44:41.070Z,99.60
2019-04-28T02:47:11.253Z,99.60
2019-04-28T02:49:43.573Z,99.50
2019-04-28T02:52:13.994Z,99.50
2019-04-28T02:54:43.586Z,99.50
2019-04-28T02:57:13.168Z,99.50
2019-04-28T02:59:44.619Z,99.50
2019-04-28T03:02:14.276Z,99.30
2019-04-28T03:04:45.074Z,99.30
2019-04-28T03:07:14.850Z,99.20
2019-04-28T03:09:44.534Z,99.20
2019-04-28T03:12:14.128Z,99.20
2019-04-28T03:14:45.099Z,99.10
2019-04-28T03:17:14.779Z,99.10
2019-04-28T03:19:44.494Z,99.10
2019-04-28T03:22:14.199Z,99.10
2019-04-28T03:24:45.373Z,99.10
2019-04-28T03:27:16.650Z,99.10
2019-04-28T03:29:52.275Z,99.10
2019-04-28T03:32:37.257Z,99.10
2019-04-28T03:34:53.678Z,98.90
2019-04-28T03:37:24.142Z,98.80
2019-04-28T03:39:54.240Z,98.70
2019-04-28T03:42:24.140Z,98.70
2019-04-28T03:44:55.208Z,98.70
2019-04-28T03:47:25.932Z,98.70
2019-04-28T03:49:55.556Z,98.70
2019-04-28T03:52:25.194Z,98.70
2019-04-28T03:54:54.774Z,98.70
2019-04-28T03:57:24.449Z,98.70
2019-04-28T03:59:54.082Z,98.80
2019-04-28T04:02:26.390Z,98.70
2019-04-28T04:04:56.045Z,98.60
2019-04-28T04:07:25.673Z,98.50
2019-04-28T04:10:06.360Z,98.50
2019-04-28T04:12:41.236Z,98.50
2019-04-28T04:15:11.850Z,98.40
2019-04-28T04:17:43.044Z,98.50
2019-04-28T04:20:15.695Z,98.40
2019-04-28T04:22:45.335Z,98.40
2019-04-28T04:25:14.928Z,98.30
2019-04-28T04:27:44.560Z,98.30
2019-04-28T04:30:14.237Z,98.20
2019-04-28T04:32:43.954Z,98.20
2019-04-28T04:35:13.582Z,98.20
2019-04-28T04:37:43.170Z,98.10
2019-04-28T04:40:13.364Z,98.10
2019-04-28T04:42:43.300Z,98.00
2019-04-28T04:45:12.900Z,97.90
2019-04-28T04:47:42.478Z,97.70
2019-04-28T04:50:13.194Z,97.50
2019-04-28T04:52:44.257Z,97.40
2019-04-28T04:55:13.961Z,97.20
2019-04-28T04:57:43.596Z,97.20
2019-04-28T05:00:15.228Z,97.10
2019-04-28T05:02:52.043Z,97.00
2019-04-28T05:05:20.307Z,97.10
2019-04-28T05:07:50.733Z,97.00
2019-04-28T05:10:20.469Z,97.30
2019-04-28T05:12:51.766Z,97.10
2019-04-28T05:15:21.557Z,97.00
2019-04-28T05:17:51.248Z,96.90
2019-04-28T05:20:20.873Z,96.80
2019-04-28T05:22:52.076Z,96.70
2019-04-28T05:25:24.662Z,96.70
2019-04-28T05:27:59.335Z,96.60
2019-04-28T05:30:26.850Z,96.30
2019-04-28T05:32:57.449Z,96.30
2019-04-28T05:35:27.275Z,96.30
2019-04-28T05:37:59.642Z,96.70
2019-04-28T05:40:29.646Z,96.30
2019-04-28T05:43:00.843Z,96.30
2019-04-28T05:45:32.305Z,96.00
2019-04-28T05:48:02.104Z,96.10
2019-04-28T05:50:33.551Z,96.20
2019-04-28T05:53:04.794Z,96.20
2019-04-28T05:55:36.011Z,96.10
2019-04-28T05:58:09.861Z,95.90
2019-04-28T06:00:41.766Z,95.90
2019-04-28T06:03:12.804Z,95.30
2019-04-28T06:05:42.473Z,95.10
2019-04-28T06:08:13.685Z,94.90
2019-04-28T06:10:43.273Z,94.80
2019-04-28T06:13:12.898Z,94.70
2019-04-28T06:15:42.528Z,94.50
2019-04-28T06:18:12.165Z,94.10
2019-04-28T06:20:41.733Z,94.10
2019-04-28T06:23:11.865Z,94.00
2019-04-28T06:25:41.491Z,94.00
2019-04-28T06:28:11.089Z,93.90
2019-04-28T06:30:40.806Z,93.80
2019-04-28T06:33:10.369Z,93.60
2019-04-28T06:35:39.992Z,93.60
2019-04-28T06:38:09.504Z,93.20
2019-04-28T06:40:41.408Z,92.90
2019-04-28T06:43:10.190Z,93.00
2019-04-28T06:45:39.781Z,93.20
2019-04-28T06:48:09.301Z,92.90
2019-04-28T06:50:40.044Z,92.80
2019-04-28T06:53:09.603Z,92.70
2019-04-28T06:55:39.193Z,92.30
2019-04-28T06:58:08.832Z,91.70
2019-04-28T07:00:38.445Z,91.40
2019-04-28T07:03:12.983Z,91.40
2019-04-28T07:05:39.274Z,90.90
2019-04-28T07:08:08.932Z,90.30
2019-04-28T07:10:38.575Z,88.00
2019-04-28T07:13:08.266Z,84.00
2019-04-28T07:15:38.524Z,81.50
2019-04-28T07:18:08.959Z,80.50
2019-04-28T07:20:40.303Z,79.50
2019-04-28T07:23:11.885Z,77.40
2019-04-28T07:25:41.476Z,75.30
2019-04-28T07:28:14.778Z,72.80
2019-04-28T07:30:44.443Z,71.30
2019-04-28T07:33:13.896Z,72.20
2019-04-28T07:35:43.487Z,72.90
2019-04-28T07:38:13.070Z,73.60
2019-04-28T07:40:42.744Z,75.20
2019-04-28T07:43:12.355Z,73.40
2019-04-28T07:45:41.961Z,74.00
2019-04-28T07:48:11.573Z,75.50
2019-04-28T07:50:41.129Z,76.20
2019-04-28T07:53:13.621Z,75.60
2019-04-28T07:55:43.250Z,75.00
2019-04-28T07:58:12.939Z,72.30
2019-04-28T08:00:44.255Z,70.30
2019-04-28T08:03:15.541Z,70.10
2019-04-28T08:05:45.137Z,70.20
2019-04-28T08:08:14.826Z,72.20
2019-04-28T08:10:44.391Z,74.90
2019-04-28T08:13:13.917Z,77.10
2019-04-28T08:15:44.089Z,72.20
2019-04-28T08:18:13.676Z,71.00
2019-04-28T08:20:43.310Z,69.90
2019-04-28T08:23:13.108Z,67.70
2019-04-28T08:25:42.794Z,67.60
2019-04-28T08:28:12.373Z,68.60
2019-04-28T08:30:41.949Z,68.10
2019-04-28T08:33:13.207Z,67.00
2019-04-28T08:35:42.813Z,67.20
2019-04-28T08:38:12.475Z,68.90
2019-04-28T08:40:42.088Z,68.70
2019-04-28T08:43:11.559Z,67.70
2019-04-28T08:45:42.289Z,69.00
2019-04-28T08:48:11.747Z,68.00
2019-04-28T08:50:41.325Z,67.50
2019-04-28T08:53:13.882Z,65.90
2019-04-28T08:55:42.228Z,66.50
2019-04-28T08:58:11.897Z,64.40
2019-04-28T09:00:41.571Z,64.00
2019-04-28T09:03:11.187Z,63.90
2019-04-28T09:05:41.787Z,62.70
2019-04-28T09:08:11.570Z,62.40
2019-04-28T09:10:41.077Z,61.70
2019-04-28T09:13:11.707Z,60.70
2019-04-28T09:15:41.362Z,61.20
2019-04-28T09:18:11.003Z,60.30
2019-04-28T09:20:40.685Z,58.80
2019-04-28T09:23:10.300Z,60.10
2019-04-28T09:25:39.871Z,63.10
2019-04-28T09:28:09.489Z,59.10
2019-04-28T09:30:39.250Z,59.40
2019-04-28T09:33:08.805Z,58.60
2019-04-28T09:35:38.884Z,60.40
2019-04-28T09:38:08.467Z,62.80
2019-04-28T09:40:38.031Z,60.30
2019-04-28T09:43:09.267Z,61.00
2019-04-28T09:45:40.486Z,61.80
2019-04-28T09:48:10.167Z,64.10
2019-04-28T09:50:39.747Z,65.60
2019-04-28T09:53:09.406Z,65.50
2019-04-28T09:55:39.106Z,65.20
2019-04-28T09:58:08.730Z,65.50
2019-04-28T10:00:39.848Z,65.70
2019-04-28T10:03:12.613Z,65.00
2019-04-28T10:05:42.196Z,65.10
2019-04-28T10:08:11.815Z,65.20
2019-04-28T10:10:42.817Z,63.00
2019-04-28T10:13:12.406Z,62.00
2019-04-28T10:15:41.868Z,59.30
2019-04-28T10:18:12.014Z,59.30
2019-04-28T10:20:43.790Z,59.80
2019-04-28T10:23:13.490Z,61.50
2019-04-28T10:25:43.280Z,60.70
2019-04-28T10:28:12.849Z,59.70
2019-04-28T10:30:42.498Z,57.40
2019-04-28T10:33:12.139Z,56.70
2019-04-28T10:35:41.884Z,56.30
2019-04-28T10:38:11.522Z,58.30
2019-04-28T10:40:43.286Z,58.50
2019-04-28T10:43:12.938Z,58.80
2019-04-28T10:45:44.187Z,58.30
2019-04-28T10:48:14.138Z,58.00
2019-04-28T10:50:43.687Z,59.50
2019-04-28T10:53:13.690Z,60.70
2019-04-28T10:55:43.327Z,58.50
2019-04-28T10:58:12.870Z,57.00
2019-04-28T11:00:43.239Z,57.60
2019-04-28T11:03:12.830Z,57.70
2019-04-28T11:05:44.053Z,58.50
2019-04-28T11:08:15.920Z,59.20
2019-04-28T11:10:44.759Z,57.20
2019-04-28T11:13:14.383Z,58.10
2019-04-28T11:15:43.975Z,57.70
2019-04-28T11:18:14.913Z,57.60
2019-04-28T11:20:44.563Z,59.60
2019-04-28T11:23:14.203Z,59.50
2019-04-28T11:25:43.811Z,59.40
2019-04-28T11:28:13.684Z,58.90
2019-04-28T11:30:43.252Z,58.60
2019-04-28T11:33:14.576Z,57.50
2019-04-28T11:35:46.006Z,59.10
2019-04-28T11:38:15.595Z,58.80
2019-04-28T11:40:45.264Z,59.70
2019-04-28T11:43:14.845Z,59.40
2019-04-28T11:45:44.505Z,60.00
2019-04-28T11:48:13.999Z,61.00
2019-04-28T11:50:43.598Z,59.90
2019-04-28T11:53:13.158Z,60.80
2019-04-28T11:55:44.844Z,62.40
2019-04-28T11:58:14.450Z,61.40
2019-04-28T12:00:45.324Z,61.80
2019-04-28T12:03:15.073Z,62.80
2019-04-28T12:05:46.316Z,61.50
2019-04-28T12:08:15.971Z,63.10
2019-04-28T12:10:47.223Z,61.80
2019-04-28T12:13:18.476Z,61.50
2019-04-28T12:15:49.688Z,59.90
2019-04-28T12:18:20.961Z,59.80
2019-04-28T12:20:50.569Z,58.90
2019-04-28T12:23:20.204Z,57.70
2019-04-28T12:25:49.734Z,58.50
2019-04-28T12:28:19.390Z,58.90
2019-04-28T12:30:48.890Z,57.90
2019-04-28T12:33:19.498Z,55.90
2019-04-28T12:35:49.082Z,55.70
2019-04-28T12:38:18.640Z,56.60
2019-04-28T12:40:48.308Z,56.00
2019-04-28T12:43:17.887Z,55.50
2019-04-28T12:45:48.074Z,55.60
2019-04-28T12:48:17.728Z,56.40
2019-04-28T12:50:50.346Z,56.60
2019-04-28T12:53:23.604Z,59.00
2019-04-28T12:55:53.192Z,59.30
2019-04-28T12:58:22.701Z,57.80
2019-04-28T13:00:53.979Z,58.80
2019-04-28T13:03:25.245Z,60.40
2019-04-28T13:06:02.544Z,58.50
2019-04-28T13:08:28.893Z,58.20
2019-04-28T13:10:59.455Z,58.10
2019-04-28T13:13:29.144Z,58.80
2019-04-28T13:15:58.809Z,58.40
2019-04-28T13:18:28.360Z,58.30
2019-04-28T13:20:59.088Z,60.30
2019-04-28T13:23:28.835Z,60.40
2019-04-28T13:25:58.396Z,60.20
2019-04-28T13:28:27.958Z,58.90
2019-04-28T13:30:57.529Z,58.50
2019-04-28T13:33:27.147Z,59.70
2019-04-28T13:35:56.810Z,61.00
2019-04-28T13:38:26.319Z,63.70
2019-04-28T13:40:56.008Z,64.00
2019-04-28T13:43:25.581Z,64.10
2019-04-28T13:45:56.211Z,63.70
2019-04-28T13:48:25.941Z,64.10
2019-04-28T13:50:55.582Z,64.20
2019-04-28T13:53:25.214Z,63.80
2019-04-28T13:55:56.503Z,65.40
2019-04-28T13:58:27.836Z,62.30
2019-04-28T14:00:59.066Z,64.30
2019-04-28T14:03:30.323Z,63.30
2019-04-28T14:06:01.570Z,60.10
2019-04-28T14:08:31.204Z,57.30
2019-04-28T14:11:00.887Z,54.90
2019-04-28T14:13:30.409Z,53.30
2019-04-28T14:15:59.972Z,51.80
2019-04-28T14:18:29.631Z,54.00
2019-04-28T14:20:59.238Z,57.20
2019-04-28T14:23:30.028Z,58.50
2019-04-28T14:26:00.153Z,58.70
2019-04-28T14:28:29.787Z,57.60
2019-04-28T14:30:59.432Z,57.80
2019-04-28T14:33:32.142Z,58.40
2019-04-28T14:36:01.739Z,60.70
2019-04-28T14:38:31.277Z,61.40
2019-04-28T14:41:00.847Z,59.20
2019-04-28T14:43:30.504Z,60.10
2019-04-28T14:46:00.124Z,59.90
2019-04-28T14:48:29.733Z,58.70
2019-04-28T14:50:59.296Z,58.20
2019-04-28T14:53:29.096Z,59.50
2019-04-28T14:55:58.729Z,59.80
2019-04-28T14:58:28.368Z,62.00
2019-04-28T15:00:59.607Z,61.50
2019-04-28T15:03:31.001Z,61.00
2019-04-28T15:06:00.780Z,62.10
2019-04-28T15:08:32.690Z,63.60
2019-04-28T15:11:08.816Z,63.50
2019-04-28T15:13:39.790Z,64.30
2019-04-28T15:16:09.430Z,63.90
2019-04-28T15:18:39.188Z,65.20
2019-04-28T15:21:11.486Z,65.40
2019-04-28T15:23:41.072Z,65.60
2019-04-28T15:26:12.256Z,67.30
2019-04-28T15:28:41.823Z,68.40
2019-04-28T15:31:13.221Z,69.20
2019-04-28T15:33:43.138Z,70.20
2019-04-28T15:36:12.748Z,70.80
2019-04-28T15:38:42.407Z,70.40
2019-04-28T15:41:21.301Z,70.60
2019-04-28T15:43:43.272Z,68.80
2019-04-28T15:46:12.886Z,66.60
2019-04-28T15:48:42.687Z,68.40
2019-04-28T15:51:12.389Z,68.40
2019-04-28T15:53:43.661Z,65.60
2019-04-28T15:56:16.390Z,64.20
2019-04-28T15:58:47.317Z,61.80
2019-04-28T16:01:16.962Z,60.90
2019-04-28T16:03:46.611Z,59.50
2019-04-28T16:06:16.155Z,60.20
2019-04-28T16:08:45.804Z,60.70
2019-04-28T16:11:15.445Z,60.10
2019-04-28T16:13:45.104Z,59.90
2019-04-28T16:16:14.635Z,57.30
2019-04-28T16:18:44.277Z,57.50
2019-04-28T16:21:13.812Z,56.80
2019-04-28T16:23:43.458Z,54.20
2019-04-28T16:26:13.008Z,54.60
2019-04-28T16:28:42.603Z,51.20
2019-04-28T16:31:12.233Z,50.80
2019-04-28T16:33:41.986Z,50.90
2019-04-28T16:36:11.516Z,50.10
2019-04-28T16:38:41.195Z,51.40
2019-04-28T16:41:12.730Z,53.00
2019-04-28T16:43:44.356Z,54.10
2019-04-28T16:46:13.937Z,53.30
2019-04-28T16:48:43.571Z,54.30
2019-04-28T16:51:14.696Z,54.80
2019-04-28T16:53:44.326Z,54.80
2019-04-28T16:56:16.578Z,54.60
2019-04-28T16:58:47.802Z,54.60
2019-04-28T17:01:19.118Z,56.30
2019-04-28T17:03:48.721Z,58.70
2019-04-28T17:06:18.399Z,60.70
2019-04-28T17:08:47.982Z,61.70
2019-04-28T17:11:17.596Z,63.10
2019-04-28T17:13:47.263Z,64.00
2019-04-28T17:16:16.910Z,65.30
2019-04-28T17:18:46.542Z,66.00
2019-04-28T17:21:16.137Z,66.40
2019-04-28T17:23:45.770Z,66.30
2019-04-28T17:26:15.479Z,66.90
2019-04-28T17:28:45.011Z,67.10
2019-04-28T17:31:14.706Z,68.00
2019-04-28T17:33:44.205Z,68.50
2019-04-28T17:36:13.878Z,68.60
2019-04-28T17:38:43.468Z,68.60
2019-04-28T17:41:13.221Z,68.20
2019-04-28T17:43:42.944Z,67.70
2019-04-28T17:46:12.533Z,66.60
2019-04-28T17:48:45.092Z,65.50
2019-04-28T17:51:15.292Z,65.40
2019-04-28T17:53:44.840Z,66.10
2019-04-28T17:56:14.528Z,67.00
2019-04-28T17:58:45.959Z,68.30
2019-04-28T18:01:16.944Z,69.10
2019-04-28T18:03:51.420Z,69.50
2019-04-28T18:06:24.547Z,69.90
2019-04-28T18:08:54.161Z,70.60
2019-04-28T18:11:23.781Z,71.30
2019-04-28T18:13:53.465Z,72.40
2019-04-28T18:16:24.718Z,72.70
2019-04-28T18:18:55.796Z,73.60
2019-04-28T18:21:25.619Z,74.00
2019-04-28T18:23:56.883Z,74.50
2019-04-28T18:26:26.518Z,74.70
2019-04-28T18:28:56.174Z,75.10
2019-04-28T18:31:25.912Z,76.30
2019-04-28T18:34:03.434Z,76.90
2019-04-28T18:36:34.715Z,77.70
2019-04-28T18:39:08.157Z,78.90
2019-04-28T18:41:41.345Z,79.90
2019-04-28T18:44:14.247Z,80.90
2019-04-28T18:46:43.918Z,81.40
2019-04-28T18:49:13.521Z,81.70
2019-04-28T18:51:43.221Z,82.10
2019-04-28T18:54:12.796Z,82.50
2019-04-28T18:56:42.472Z,82.70
2019-04-28T18:59:12.229Z,83.00
2019-04-28T19:01:43.500Z,83.40
2019-04-28T19:04:13.039Z,83.90
2019-04-28T19:06:42.712Z,84.50
2019-04-28T19:09:14.065Z,84.80
2019-04-28T19:11:45.861Z,85.20
2019-04-28T19:14:20.094Z,85.60
2019-04-28T19:16:51.382Z,85.90
2019-04-28T19:19:22.697Z,86.20
2019-04-28T19:21:53.987Z,86.50
2019-04-28T19:24:24.805Z,86.30
2019-04-28T19:26:54.790Z,86.40
2019-04-28T19:29:24.450Z,86.60
2019-04-28T19:31:54.057Z,86.80
2019-04-28T19:34:23.743Z,86.90
2019-04-28T19:36:53.839Z,87.10
2019-04-28T19:39:23.419Z,87.10
2019-04-28T19:41:53.066Z,87.10
2019-04-28T19:44:22.668Z,87.10
2019-04-28T19:46:52.339Z,86.90
2019-04-28T19:49:21.914Z,87.00
2019-04-28T19:51:51.503Z,87.20
2019-04-28T19:54:22.758Z,87.20
2019-04-28T19:56:54.030Z,87.30
2019-04-28T19:59:25.244Z,87.20
2019-04-28T20:01:54.929Z,87.20
2019-04-28T20:04:24.539Z,87.30
2019-04-28T20:06:54.157Z,87.40
2019-04-28T20:09:23.878Z,87.40
2019-04-28T20:11:53.587Z,87.40
2019-04-28T20:14:23.268Z,87.60
2019-04-28T20:16:52.900Z,88.00
2019-04-28T20:19:42.494Z,88.00
2019-04-28T20:22:12.018Z,87.70
2019-04-28T20:24:47.343Z,87.50
2019-04-28T20:27:12.910Z,87.90
2019-04-28T20:29:42.758Z,88.20
2019-04-28T20:32:13.606Z,88.10
2019-04-28T20:34:43.374Z,87.80
2019-04-28T20:37:14.578Z,87.70
2019-04-28T20:39:47.201Z,87.70
2019-04-28T20:42:21.261Z,87.80
2019-04-28T20:44:52.139Z,87.90
2019-04-28T20:47:21.730Z,88.20
2019-04-28T20:49:51.502Z,88.50
2019-04-28T20:52:21.037Z,88.60
2019-04-28T20:54:50.770Z,89.00
2019-04-28T20:57:20.316Z,89.10
2019-04-28T20:59:50.579Z,89.20
2019-04-28T21:02:20.227Z,89.40
2019-04-28T21:04:49.854Z,89.60
2019-04-28T21:07:19.637Z,89.60
2019-04-28T21:09:50.499Z,89.70
2019-04-28T21:12:20.206Z,89.80
2019-04-28T21:14:49.826Z,90.00
2019-04-28T21:17:20.903Z,90.00
2019-04-28T21:19:50.585Z,90.10
2019-04-28T21:22:20.125Z,90.10
2019-04-28T21:24:52.117Z,90.10
2019-04-28T21:27:24.376Z,90.30
2019-04-28T21:29:59.008Z,90.30
2019-04-28T21:32:29.955Z,90.40
2019-04-28T21:34:59.647Z,90.50
2019-04-28T21:37:29.211Z,90.60
2019-04-28T21:39:58.887Z,90.60
2019-04-28T21:42:30.131Z,90.60
2019-04-28T21:45:01.426Z,90.70
2019-04-28T21:47:32.678Z,90.80
2019-04-28T21:50:02.378Z,90.90
2019-04-28T21:52:31.989Z,91.00
2019-04-28T21:55:01.579Z,91.00
2019-04-28T21:57:31.243Z,91.00
2019-04-28T22:00:00.813Z,91.10
2019-04-28T22:02:30.406Z,91.10
2019-04-28T22:04:59.997Z,91.20
2019-04-28T22:07:29.643Z,91.30
2019-04-28T22:09:59.244Z,91.30
2019-04-28T22:12:28.953Z,91.20
2019-04-28T22:14:58.553Z,91.30
2019-04-28T22:17:28.139Z,91.40
2019-04-28T22:19:57.755Z,91.30
2019-04-28T22:22:27.424Z,91.50
2019-04-28T22:24:58.676Z,91.60
2019-04-28T22:27:29.929Z,91.60
2019-04-28T22:29:59.502Z,91.80
2019-04-28T22:32:29.152Z,91.90
2019-04-28T22:34:58.785Z,92.00
2019-04-28T22:37:28.466Z,92.10
2019-04-28T22:39:58.120Z,92.20
2019-04-28T22:42:27.778Z,92.20
2019-04-28T22:44:57.413Z,92.30
2019-04-28T22:47:27.119Z,92.30
2019-04-28T22:49:56.781Z,92.30
2019-04-28T22:52:26.434Z,92.30
2019-04-28T22:54:56.414Z,92.30
2019-04-28T22:57:27.651Z,92.40
2019-04-28T22:59:58.833Z,92.50
2019-04-28T23:02:30.152Z,92.60
2019-04-28T23:05:01.386Z,92.70
2019-04-28T23:07:31.034Z,92.80
2019-04-28T23:10:00.784Z,92.80
2019-04-28T23:12:32.037Z,92.90
2019-04-28T23:15:01.659Z,93.00
2019-04-28T23:17:32.786Z,93.00
2019-04-28T23:20:02.396Z,92.90
2019-04-28T23:22:46.260Z,93.00
2019-04-28T23:25:07.027Z,93.00
2019-04-28T23:27:35.835Z,93.00
2019-04-28T23:30:07.626Z,93.00
2019-04-28T23:32:36.494Z,92.90
2019-04-28T23:35:06.910Z,93.00
2019-04-28T23:37:36.531Z,93.00
2019-04-28T23:40:09.250Z,92.90
2019-04-28T23:42:40.428Z,93.00
2019-04-28T23:45:12.314Z,93.10
2019-04-28T23:47:42.053Z,93.20
2019-04-28T23:50:13.562Z,93.20
2019-04-28T23:52:44.853Z,93.30
2019-04-28T23:55:14.914Z,93.30
2019-04-28T23:57:44.537Z,93.40
